Terminal Aerodrome Forecast
Issued by NWS Austin/San Antonio, TX

Home | Current Version | Previous Version | Text Only | Print | Product List | Glossary On
Versions: 1 2 3 4 5 6 7 8 9 10 11 12 13 14 15 16 17 18 19 20 21 22 23 24 25 26 27
000
FTUS44 KEWX 020750 AAA
TAFSAT
TAF AMD
KSAT 020750Z 0208/0312 15008KT P6SM SCT005
      TEMPO 0208/0212 6SM BR BKN008
     FM021400 16010KT P6SM BKN025
     FM021700 16015KT P6SM SCT025 BKN040
     FM022000 16015KT P6SM SCT050
     FM030100 14012KT P6SM BKN250
     FM030600 14009KT P6SM OVC015=

USA.gov is the U.S. government's official web portal to all federal, state and local government web resources and services.